»·PEaware :: WAT380 KTUS-KPSP

WAT380 :: KTUS-KPSP

FLIGHT INFORMATION

Flight Status: Arrived
Operator:
Walker Air Transport
More flights by this operator :: More flights under this callsign
Pilot: Spencer M. (27733)
Aircraft: DASSAULT AVIATION FALCON 50
(FA50)
More flights by this aircraft type
Origin: KTUS Tucson Intl
United States
Destination: KPSP Palm Springs Intl
United States
More flights between these airports :: More routes between these airports
Route: +WLDKT3 GBN J50 BLH CLOWD1
File this flight plan on PilotEdge
Remarks:
Altitude:
(Current/Filed)
28,000ft
Speed:
(Current/Filed)
420kts
Departed: 23-Nov-20 08:15 PM
Arrived: 23-Nov-20 09:14 PM
Distance/Time
Traveled:
298nm/0:59
Distance/Time
To Go:
Arrived

Flight Plot

Page will automatically refresh every two minutes.

Flight plan parsing failed; only flown route is shown


Map Options




Map Legend


Flown Route
Filed Route
Departure Airport
Arrival Airport
Navaid (VOR, NDB)
Fix

Horizontal Profiles

Position Reports

Time Latitude Longitude Heading Altitude Ground
Speed
23-Nov-20 19:57 32.123673 -110.943632 223 2650ft 0kts
23-Nov-20 19:58 32.123673 -110.943632 223 2650ft 0kts
23-Nov-20 19:59 32.123673 -110.943632 223 2650ft 0kts
23-Nov-20 20:00 32.123673 -110.943632 223 2650ft 0kts
23-Nov-20 20:01 32.123673 -110.943632 223 2650ft 0kts
23-Nov-20 20:02 32.123673 -110.943632 223 2650ft 0kts
23-Nov-20 20:03 32.123673 -110.943632 223 2650ft 0kts
23-Nov-20 20:04 32.123423 -110.943876 216 2650ft 3kts
23-Nov-20 20:05 32.121443 -110.943124 135 2650ft 13kts
23-Nov-20 20:06 32.117980 -110.939055 134 2650ft 20kts
23-Nov-20 20:07 32.114362 -110.934805 135 2650ft 15kts
23-Nov-20 20:08 32.111551 -110.931532 135 2650ft 15kts
23-Nov-20 20:09 32.107846 -110.927159 133 2650ft 21kts
23-Nov-20 20:10 32.104012 -110.922689 134 2650ft 12kts
23-Nov-20 20:11 32.102945 -110.922515 224 2650ft 0kts
23-Nov-20 20:12 32.102945 -110.922515 224 2650ft 0kts
23-Nov-20 20:13 32.102699 -110.922797 228 2650ft 8kts
23-Nov-20 20:14 32.118262 -110.941978 315 2843ft 177kts
23-Nov-20 20:15 32.158711 -110.990322 315 5530ft 240kts
23-Nov-20 20:16 32.210089 -111.050791 305 8450ft 280kts
23-Nov-20 20:17 32.248514 -111.130710 293 11478ft 285kts
23-Nov-20 20:18 32.287021 -111.213922 293 14099ft 298kts
23-Nov-20 20:19 32.328645 -111.303203 293 16565ft 325kts
23-Nov-20 20:20 32.374064 -111.400743 293 18582ft 349kts
23-Nov-20 20:21 32.421547 -111.502927 293 20557ft 361kts
23-Nov-20 20:22 32.470044 -111.607592 293 22514ft 364kts
23-Nov-20 20:23 32.518376 -111.712215 291 24502ft 361kts
23-Nov-20 20:24 32.565925 -111.815414 289 26509ft 354kts
23-Nov-20 20:25 32.612466 -111.916874 288 28014ft 358kts
23-Nov-20 20:26 32.662508 -112.026593 290 27971ft 394kts
23-Nov-20 20:27 32.716372 -112.144416 291 27882ft 416kts
23-Nov-20 20:28 32.772234 -112.267130 291 27881ft 427kts
23-Nov-20 20:29 32.828974 -112.392266 291 27878ft 433kts
23-Nov-20 20:30 32.886067 -112.518608 292 27874ft 434kts
23-Nov-20 20:31 32.943032 -112.644014 294 27871ft 428kts
23-Nov-20 20:32 33.017468 -112.755254 304 27880ft 432kts
23-Nov-20 20:33 33.097352 -112.860945 305 27873ft 426kts
23-Nov-20 20:34 33.176056 -112.965296 305 27873ft 420kts
23-Nov-20 20:35 33.253515 -113.068329 305 27879ft 416kts
23-Nov-20 20:36 33.330349 -113.170829 306 27878ft 412kts
23-Nov-20 20:37 33.406242 -113.272339 306 27875ft 407kts
23-Nov-20 20:38 33.465505 -113.382857 282 27878ft 389kts
23-Nov-20 20:39 33.479929 -113.510844 276 26980ft 392kts
23-Nov-20 20:40 33.492275 -113.640437 276 25435ft 388kts
23-Nov-20 20:42 33.504536 -113.767617 276 23962ft 382kts
23-Nov-20 20:43 33.516356 -113.891184 276 23885ft 368kts
23-Nov-20 20:44 33.527857 -114.012663 277 23884ft 365kts
23-Nov-20 20:45 33.539123 -114.132948 277 23883ft 364kts
23-Nov-20 20:46 33.550477 -114.255397 277 23879ft 375kts
23-Nov-20 20:47 33.562036 -114.381515 277 23878ft 387kts
23-Nov-20 20:48 33.573784 -114.511245 277 23875ft 395kts
23-Nov-20 20:49 33.585601 -114.643300 278 23873ft 400kts
23-Nov-20 20:50 33.602058 -114.775544 287 23883ft 403kts
23-Nov-20 20:51 33.642156 -114.901271 292 23881ft 406kts
23-Nov-20 20:52 33.683655 -115.027455 292 23888ft 407kts
23-Nov-20 20:53 33.724435 -115.152015 293 23490ft 390kts
23-Nov-20 20:54 33.762213 -115.267896 293 21436ft 357kts
23-Nov-20 20:55 33.797058 -115.375077 293 19390ft 336kts
23-Nov-20 20:56 33.830180 -115.477275 292 17326ft 323kts
23-Nov-20 20:57 33.862829 -115.578435 292 15276ft 329kts
23-Nov-20 20:57 33.890779 -115.665278 292 13577ft 338kts
23-Nov-20 20:59 33.912850 -115.785925 268 11594ft 304kts
23-Nov-20 20:59 33.907572 -115.865742 268 10995ft 262kts
23-Nov-20 21:01 33.879580 -115.944664 213 11001ft 218kts
23-Nov-20 21:01 33.839893 -115.973812 220 10999ft 187kts
23-Nov-20 21:02 33.799278 -116.008468 222 11004ft 173kts
23-Nov-20 21:04 33.754348 -116.049249 239 10728ft 179kts
23-Nov-20 21:04 33.732135 -116.095020 247 9537ft 203kts
23-Nov-20 21:05 33.703793 -116.158609 246 8068ft 225kts
23-Nov-20 21:06 33.702653 -116.229364 281 6674ft 219kts
23-Nov-20 21:07 33.709253 -116.304023 282 5364ft 213kts
23-Nov-20 21:08 33.727946 -116.370879 306 4213ft 196kts
23-Nov-20 21:09 33.753484 -116.410537 308 3242ft 132kts
23-Nov-20 21:10 33.774933 -116.444454 304 2213ft 124kts
23-Nov-20 21:11 33.795917 -116.477698 320 1281ft 122kts
23-Nov-20 21:12 33.823495 -116.502192 323 490ft 117kts
23-Nov-20 21:13 33.837122 -116.513469 42 484ft 10kts
23-Nov-20 21:14 33.837230 -116.513274 72 484ft 0kts
23-Nov-20 21:15 33.836651 -116.512201 145 484ft 11kts
23-Nov-20 21:16 33.834850 -116.510056 57 484ft 7kts
23-Nov-20 21:17 33.834209 -116.507810 144 484ft 10kts
23-Nov-20 21:18 33.831832 -116.505723 144 484ft 10kts
23-Nov-20 21:19 33.829394 -116.503543 143 484ft 11kts
23-Nov-20 21:20 33.826730 -116.501175 143 484ft 13kts
23-Nov-20 21:21 33.823638 -116.498277 147 484ft 11kts
23-Nov-20 21:27 33.823824 -116.497708 318 484ft 0kts

Navigation Log

Ident Type
Flight plan parsing failed, navigation log unavailable